sensor_id;sensor_type;location;lat;lon;timestamp;P1;durP1;ratioP1;P2;durP2;ratioP2
7517;SDS011;3800;48.922;9.444;2023-06-10T00:02:13;6.00;;;5.40;;
7517;SDS011;3800;48.922;9.444;2023-06-10T00:04:41;6.47;;;5.87;;
7517;SDS011;3800;48.922;9.444;2023-06-10T00:07:10;5.43;;;4.93;;
7517;SDS011;3800;48.922;9.444;2023-06-10T00:09:39;6.23;;;4.90;;
7517;SDS011;3800;48.922;9.444;2023-06-10T00:12:08;4.57;;;4.17;;
7517;SDS011;3800;48.922;9.444;2023-06-10T00:14:38;5.10;;;4.50;;
7517;SDS011;3800;48.922;9.444;2023-06-10T00:17:05;4.20;;;3.80;;
7517;SDS011;3800;48.922;9.444;2023-06-10T00:19:36;4.63;;;4.23;;
7517;SDS011;3800;48.922;9.444;2023-06-10T00:22:05;4.23;;;3.83;;
7517;SDS011;3800;48.922;9.444;2023-06-10T00:24:34;5.17;;;4.00;;
7517;SDS011;3800;48.922;9.444;2023-06-10T00:27:02;4.50;;;3.47;;
7517;SDS011;3800;48.922;9.444;2023-06-10T00:29:30;6.13;;;3.70;;
7517;SDS011;3800;48.922;9.444;2023-06-10T00:31:59;4.40;;;3.40;;
7517;SDS011;3800;48.922;9.444;2023-06-10T00:34:27;4.10;;;3.80;;
7517;SDS011;3800;48.922;9.444;2023-06-10T00:36:55;4.10;;;3.70;;
7517;SDS011;3800;48.922;9.444;2023-06-10T00:39:23;4.17;;;3.60;;
7517;SDS011;3800;48.922;9.444;2023-06-10T00:41:52;4.23;;;3.83;;
7517;SDS011;3800;48.922;9.444;2023-06-10T00:44:21;4.20;;;3.80;;
7517;SDS011;3800;48.922;9.444;2023-06-10T00:46:49;4.30;;;3.70;;
7517;SDS011;3800;48.922;9.444;2023-06-10T00:49:18;4.70;;;3.73;;
7517;SDS011;3800;48.922;9.444;2023-06-10T00:51:46;3.60;;;3.30;;
7517;SDS011;3800;48.922;9.444;2023-06-10T00:54:15;4.33;;;3.93;;
7517;SDS011;3800;48.922;9.444;2023-06-10T00:56:44;4.70;;;3.90;;
7517;SDS011;3800;48.922;9.444;2023-06-10T00:59:12;4.83;;;3.77;;
7517;SDS011;3800;48.922;9.444;2023-06-10T01:01:41;3.60;;;3.30;;
7517;SDS011;3800;48.922;9.444;2023-06-10T01:04:10;3.90;;;3.60;;
7517;SDS011;3800;48.922;9.444;2023-06-10T01:09:22;4.17;;;3.60;;
7517;SDS011;3800;48.922;9.444;2023-06-10T01:12:05;3.60;;;3.30;;
7517;SDS011;3800;48.922;9.444;2023-06-10T01:14:40;4.40;;;4.00;;
7517;SDS011;3800;48.922;9.444;2023-06-10T01:17:08;4.13;;;3.73;;
7517;SDS011;3800;48.922;9.444;2023-06-10T01:19:37;3.60;;;3.33;;
7517;SDS011;3800;48.922;9.444;2023-06-10T01:22:05;4.90;;;3.57;;
7517;SDS011;3800;48.922;9.444;2023-06-10T01:24:34;4.70;;;4.30;;
7517;SDS011;3800;48.922;9.444;2023-06-10T01:27:04;3.83;;;3.43;;
7517;SDS011;3800;48.922;9.444;2023-06-10T01:29:36;4.10;;;3.70;;
7517;SDS011;3800;48.922;9.444;2023-06-10T01:32:12;4.70;;;3.77;;
7517;SDS011;3800;48.922;9.444;2023-06-10T01:34:56;4.10;;;3.77;;
7517;SDS011;3800;48.922;9.444;2023-06-10T01:37:24;6.03;;;4.17;;
7517;SDS011;3800;48.922;9.444;2023-06-10T01:39:55;4.30;;;3.90;;
7517;SDS011;3800;48.922;9.444;2023-06-10T01:42:21;4.10;;;3.80;;
7517;SDS011;3800;48.922;9.444;2023-06-10T01:44:49;4.20;;;3.80;;
7517;SDS011;3800;48.922;9.444;2023-06-10T01:47:17;4.23;;;3.83;;
7517;SDS011;3800;48.922;9.444;2023-06-10T01:49:46;5.13;;;4.33;;
7517;SDS011;3800;48.922;9.444;2023-06-10T01:52:14;4.50;;;4.10;;
7517;SDS011;3800;48.922;9.444;2023-06-10T01:54:43;4.77;;;4.37;;
7517;SDS011;3800;48.922;9.444;2023-06-10T01:57:11;4.40;;;4.00;;
7517;SDS011;3800;48.922;9.444;2023-06-10T01:59:39;4.40;;;4.00;;
7517;SDS011;3800;48.922;9.444;2023-06-10T02:02:09;4.87;;;4.17;;
7517;SDS011;3800;48.922;9.444;2023-06-10T02:04:38;4.30;;;3.90;;
7517;SDS011;3800;48.922;9.444;2023-06-10T02:07:06;4.60;;;4.20;;
7517;SDS011;3800;48.922;9.444;2023-06-10T02:09:35;4.90;;;4.40;;
7517;SDS011;3800;48.922;9.444;2023-06-10T02:12:03;4.53;;;4.13;;
7517;SDS011;3800;48.922;9.444;2023-06-10T02:14:33;4.63;;;4.20;;
7517;SDS011;3800;48.922;9.444;2023-06-10T02:17:01;4.70;;;4.30;;
7517;SDS011;3800;48.922;9.444;2023-06-10T02:19:29;4.27;;;3.87;;
7517;SDS011;3800;48.922;9.444;2023-06-10T02:21:58;4.20;;;3.90;;
7517;SDS011;3800;48.922;9.444;2023-06-10T02:24:26;4.53;;;4.13;;
7517;SDS011;3800;48.922;9.444;2023-06-10T02:26:55;4.90;;;4.40;;
7517;SDS011;3800;48.922;9.444;2023-06-10T02:29:23;4.60;;;4.20;;
7517;SDS011;3800;48.922;9.444;2023-06-10T02:31:51;4.30;;;4.00;;
7517;SDS011;3800;48.922;9.444;2023-06-10T02:34:19;4.03;;;3.73;;
7517;SDS011;3800;48.922;9.444;2023-06-10T02:36:48;4.57;;;4.07;;
7517;SDS011;3800;48.922;9.444;2023-06-10T02:39:17;4.83;;;3.90;;
7517;SDS011;3800;48.922;9.444;2023-06-10T02:41:45;4.93;;;4.50;;
7517;SDS011;3800;48.922;9.444;2023-06-10T02:44:13;4.47;;;4.07;;
7517;SDS011;3800;48.922;9.444;2023-06-10T02:46:42;4.93;;;4.43;;
7517;SDS011;3800;48.922;9.444;2023-06-10T02:49:11;4.53;;;4.10;;
7517;SDS011;3800;48.922;9.444;2023-06-10T02:51:39;4.60;;;4.20;;
7517;SDS011;3800;48.922;9.444;2023-06-10T02:54:08;5.30;;;4.57;;
7517;SDS011;3800;48.922;9.444;2023-06-10T02:56:36;4.37;;;3.83;;
7517;SDS011;3800;48.922;9.444;2023-06-10T02:59:04;5.00;;;4.10;;
7517;SDS011;3800;48.922;9.444;2023-06-10T03:01:33;4.70;;;4.30;;
7517;SDS011;3800;48.922;9.444;2023-06-10T03:04:01;4.73;;;4.33;;
7517;SDS011;3800;48.922;9.444;2023-06-10T03:06:30;4.30;;;3.90;;
7517;SDS011;3800;48.922;9.444;2023-06-10T03:09:01;4.93;;;4.50;;
7517;SDS011;3800;48.922;9.444;2023-06-10T03:11:29;5.27;;;4.80;;
7517;SDS011;3800;48.922;9.444;2023-06-10T03:13:57;5.67;;;5.13;;
7517;SDS011;3800;48.922;9.444;2023-06-10T03:16:25;4.63;;;4.23;;
7517;SDS011;3800;48.922;9.444;2023-06-10T03:18:54;5.63;;;4.80;;
7517;SDS011;3800;48.922;9.444;2023-06-10T03:21:23;4.77;;;4.37;;
7517;SDS011;3800;48.922;9.444;2023-06-10T03:23:52;5.07;;;4.67;;
7517;SDS011;3800;48.922;9.444;2023-06-10T03:26:20;4.80;;;4.23;;
7517;SDS011;3800;48.922;9.444;2023-06-10T03:28:48;4.77;;;4.27;;
7517;SDS011;3800;48.922;9.444;2023-06-10T03:31:17;4.77;;;4.37;;
7517;SDS011;3800;48.922;9.444;2023-06-10T03:33:45;5.20;;;4.40;;
7517;SDS011;3800;48.922;9.444;2023-06-10T03:36:14;5.00;;;4.60;;
7517;SDS011;3800;48.922;9.444;2023-06-10T03:38:43;4.87;;;4.37;;
7517;SDS011;3800;48.922;9.444;2023-06-10T03:41:12;4.53;;;4.13;;
7517;SDS011;3800;48.922;9.444;2023-06-10T03:43:40;5.00;;;4.60;;
7517;SDS011;3800;48.922;9.444;2023-06-10T03:46:08;5.30;;;4.80;;
7517;SDS011;3800;48.922;9.444;2023-06-10T03:48:36;6.20;;;4.30;;
7517;SDS011;3800;48.922;9.444;2023-06-10T03:51:05;5.23;;;4.50;;
7517;SDS011;3800;48.922;9.444;2023-06-10T03:53:33;5.43;;;4.53;;
7517;SDS011;3800;48.922;9.444;2023-06-10T03:56:02;4.97;;;4.57;;
7517;SDS011;3800;48.922;9.444;2023-06-10T03:58:30;4.80;;;4.40;;
7517;SDS011;3800;48.922;9.444;2023-06-10T04:00:59;5.73;;;5.10;;
7517;SDS011;3800;48.922;9.444;2023-06-10T04:03:27;5.47;;;5.00;;
7517;SDS011;3800;48.922;9.444;2023-06-10T04:05:55;5.27;;;4.77;;
7517;SDS011;3800;48.922;9.444;2023-06-10T04:08:23;5.60;;;5.10;;
7517;SDS011;3800;48.922;9.444;2023-06-10T04:10:52;5.40;;;4.90;;
7517;SDS011;3800;48.922;9.444;2023-06-10T04:13:21;6.03;;;5.10;;
7517;SDS011;3800;48.922;9.444;2023-06-10T04:15:49;7.27;;;4.97;;
7517;SDS011;3800;48.922;9.444;2023-06-10T04:18:19;5.37;;;4.97;;
7517;SDS011;3800;48.922;9.444;2023-06-10T04:20:47;5.63;;;5.13;;
7517;SDS011;3800;48.922;9.444;2023-06-10T04:23:15;5.33;;;4.83;;
7517;SDS011;3800;48.922;9.444;2023-06-10T04:25:44;5.83;;;5.23;;
7517;SDS011;3800;48.922;9.444;2023-06-10T04:28:12;17.77;;;6.33;;
7517;SDS011;3800;48.922;9.444;2023-06-10T04:30:41;25.50;;;6.50;;
7517;SDS011;3800;48.922;9.444;2023-06-10T04:33:09;26.67;;;7.47;;
7517;SDS011;3800;48.922;9.444;2023-06-10T04:35:38;26.80;;;6.97;;
7517;SDS011;3800;48.922;9.444;2023-06-10T04:38:07;14.13;;;6.33;;
7517;SDS011;3800;48.922;9.444;2023-06-10T04:40:35;14.30;;;5.77;;
7517;SDS011;3800;48.922;9.444;2023-06-10T04:43:04;6.40;;;5.27;;
7517;SDS011;3800;48.922;9.444;2023-06-10T04:45:32;5.70;;;5.20;;
7517;SDS011;3800;48.922;9.444;2023-06-10T04:48:01;5.53;;;5.03;;
7517;SDS011;3800;48.922;9.444;2023-06-10T04:50:29;5.90;;;5.30;;
7517;SDS011;3800;48.922;9.444;2023-06-10T04:52:58;5.60;;;5.10;;
7517;SDS011;3800;48.922;9.444;2023-06-10T04:55:26;6.07;;;5.33;;
7517;SDS011;3800;48.922;9.444;2023-06-10T04:57:55;6.00;;;5.50;;
7517;SDS011;3800;48.922;9.444;2023-06-10T05:00:24;5.67;;;5.17;;
7517;SDS011;3800;48.922;9.444;2023-06-10T05:02:53;5.60;;;5.17;;
7517;SDS011;3800;48.922;9.444;2023-06-10T05:05:21;5.07;;;4.57;;
7517;SDS011;3800;48.922;9.444;2023-06-10T05:07:49;7.27;;;5.40;;
7517;SDS011;3800;48.922;9.444;2023-06-10T05:10:17;9.37;;;5.87;;
7517;SDS011;3800;48.922;9.444;2023-06-10T05:12:46;8.30;;;5.40;;
7517;SDS011;3800;48.922;9.444;2023-06-10T05:15:14;6.70;;;5.47;;
7517;SDS011;3800;48.922;9.444;2023-06-10T05:17:42;9.40;;;5.90;;
7517;SDS011;3800;48.922;9.444;2023-06-10T05:20:11;6.30;;;5.63;;
7517;SDS011;3800;48.922;9.444;2023-06-10T05:22:39;5.77;;;5.27;;
7517;SDS011;3800;48.922;9.444;2023-06-10T05:25:07;6.17;;;5.67;;
7517;SDS011;3800;48.922;9.444;2023-06-10T05:27:36;6.70;;;6.00;;
7517;SDS011;3800;48.922;9.444;2023-06-10T05:30:04;5.90;;;5.37;;
7517;SDS011;3800;48.922;9.444;2023-06-10T05:32:34;6.83;;;6.20;;
7517;SDS011;3800;48.922;9.444;2023-06-10T05:35:02;6.00;;;5.40;;
7517;SDS011;3800;48.922;9.444;2023-06-10T05:37:30;5.93;;;5.43;;
7517;SDS011;3800;48.922;9.444;2023-06-10T05:39:58;6.30;;;5.60;;
7517;SDS011;3800;48.922;9.444;2023-06-10T05:42:27;5.20;;;4.80;;
7517;SDS011;3800;48.922;9.444;2023-06-10T05:44:56;5.80;;;5.20;;
7517;SDS011;3800;48.922;9.444;2023-06-10T05:47:24;5.80;;;5.30;;
7517;SDS011;3800;48.922;9.444;2023-06-10T05:49:52;5.53;;;5.03;;
7517;SDS011;3800;48.922;9.444;2023-06-10T05:52:21;5.30;;;4.80;;
7517;SDS011;3800;48.922;9.444;2023-06-10T05:54:49;5.53;;;5.03;;
7517;SDS011;3800;48.922;9.444;2023-06-10T05:57:17;5.80;;;5.30;;
7517;SDS011;3800;48.922;9.444;2023-06-10T05:59:45;5.60;;;5.10;;
7517;SDS011;3800;48.922;9.444;2023-06-10T06:02:14;5.90;;;5.40;;
7517;SDS011;3800;48.922;9.444;2023-06-10T06:04:43;5.50;;;5.10;;
7517;SDS011;3800;48.922;9.444;2023-06-10T06:07:12;6.00;;;5.50;;
7517;SDS011;3800;48.922;9.444;2023-06-10T06:09:40;6.57;;;5.20;;
7517;SDS011;3800;48.922;9.444;2023-06-10T06:12:08;6.43;;;5.33;;
7517;SDS011;3800;48.922;9.444;2023-06-10T06:14:38;8.53;;;5.97;;
7517;SDS011;3800;48.922;9.444;2023-06-10T06:17:06;5.73;;;5.23;;
7517;SDS011;3800;48.922;9.444;2023-06-10T06:19:35;6.37;;;5.23;;
7517;SDS011;3800;48.922;9.444;2023-06-10T06:22:03;6.13;;;5.23;;
7517;SDS011;3800;48.922;9.444;2023-06-10T06:24:31;5.73;;;5.23;;
7517;SDS011;3800;48.922;9.444;2023-06-10T06:27:00;5.40;;;4.90;;
7517;SDS011;3800;48.922;9.444;2023-06-10T06:29:29;7.37;;;5.40;;
7517;SDS011;3800;48.922;9.444;2023-06-10T06:31:57;6.10;;;5.50;;
7517;SDS011;3800;48.922;9.444;2023-06-10T06:34:25;6.00;;;5.40;;
7517;SDS011;3800;48.922;9.444;2023-06-10T06:36:54;7.97;;;5.17;;
7517;SDS011;3800;48.922;9.444;2023-06-10T06:39:22;5.30;;;4.80;;
7517;SDS011;3800;48.922;9.444;2023-06-10T06:41:51;5.70;;;5.20;;
7517;SDS011;3800;48.922;9.444;2023-06-10T06:44:19;5.60;;;5.10;;
7517;SDS011;3800;48.922;9.444;2023-06-10T06:46:47;5.47;;;4.97;;
7517;SDS011;3800;48.922;9.444;2023-06-10T06:49:16;5.27;;;4.77;;
7517;SDS011;3800;48.922;9.444;2023-06-10T06:51:44;6.77;;;5.27;;
7517;SDS011;3800;48.922;9.444;2023-06-10T06:54:12;5.70;;;5.20;;
7517;SDS011;3800;48.922;9.444;2023-06-10T06:56:40;5.33;;;4.83;;
7517;SDS011;3800;48.922;9.444;2023-06-10T06:59:09;6.17;;;4.77;;
7517;SDS011;3800;48.922;9.444;2023-06-10T07:01:37;5.00;;;4.60;;
7517;SDS011;3800;48.922;9.444;2023-06-10T07:04:05;5.60;;;5.10;;
7517;SDS011;3800;48.922;9.444;2023-06-10T07:06:34;4.97;;;4.57;;
7517;SDS011;3800;48.922;9.444;2023-06-10T07:09:02;5.10;;;4.70;;
7517;SDS011;3800;48.922;9.444;2023-06-10T07:11:31;5.27;;;4.87;;
7517;SDS011;3800;48.922;9.444;2023-06-10T07:14:00;5.33;;;4.77;;
7517;SDS011;3800;48.922;9.444;2023-06-10T07:16:28;5.27;;;4.77;;
7517;SDS011;3800;48.922;9.444;2023-06-10T07:18:56;5.40;;;4.90;;
7517;SDS011;3800;48.922;9.444;2023-06-10T07:21:25;5.90;;;5.40;;
7517;SDS011;3800;48.922;9.444;2023-06-10T07:23:53;5.30;;;4.90;;
7517;SDS011;3800;48.922;9.444;2023-06-10T07:26:23;5.70;;;5.07;;
7517;SDS011;3800;48.922;9.444;2023-06-10T07:28:51;5.43;;;5.03;;
7517;SDS011;3800;48.922;9.444;2023-06-10T07:31:19;5.73;;;5.23;;
7517;SDS011;3800;48.922;9.444;2023-06-10T07:33:47;7.37;;;4.90;;
7517;SDS011;3800;48.922;9.444;2023-06-10T07:36:16;6.07;;;5.47;;
7517;SDS011;3800;48.922;9.444;2023-06-10T07:38:44;6.37;;;5.77;;
7517;SDS011;3800;48.922;9.444;2023-06-10T07:41:12;5.90;;;5.40;;
7517;SDS011;3800;48.922;9.444;2023-06-10T07:43:40;6.67;;;5.63;;
7517;SDS011;3800;48.922;9.444;2023-06-10T07:46:09;7.93;;;5.17;;
7517;SDS011;3800;48.922;9.444;2023-06-10T07:48:38;5.77;;;5.20;;
7517;SDS011;3800;48.922;9.444;2023-06-10T07:51:07;5.33;;;4.57;;
7517;SDS011;3800;48.922;9.444;2023-06-10T07:53:35;5.53;;;5.03;;
7517;SDS011;3800;48.922;9.444;2023-06-10T07:56:03;5.23;;;4.83;;
7517;SDS011;3800;48.922;9.444;2023-06-10T07:58:32;5.07;;;4.57;;
7517;SDS011;3800;48.922;9.444;2023-06-10T08:01:00;5.17;;;4.50;;
7517;SDS011;3800;48.922;9.444;2023-06-10T08:03:28;14.07;;;6.03;;
7517;SDS011;3800;48.922;9.444;2023-06-10T08:05:56;13.43;;;6.43;;
7517;SDS011;3800;48.922;9.444;2023-06-10T08:08:25;12.30;;;5.87;;
7517;SDS011;3800;48.922;9.444;2023-06-10T08:10:54;9.90;;;5.50;;
7517;SDS011;3800;48.922;9.444;2023-06-10T08:13:23;6.10;;;4.47;;
7517;SDS011;3800;48.922;9.444;2023-06-10T08:15:51;10.10;;;5.10;;
7517;SDS011;3800;48.922;9.444;2023-06-10T08:18:19;5.03;;;4.50;;
7517;SDS011;3800;48.922;9.444;2023-06-10T08:20:47;4.90;;;4.50;;
7517;SDS011;3800;48.922;9.444;2023-06-10T08:23:16;7.10;;;4.33;;
7517;SDS011;3800;48.922;9.444;2023-06-10T08:25:44;4.70;;;4.30;;
7517;SDS011;3800;48.922;9.444;2023-06-10T08:28:12;4.57;;;4.17;;
7517;SDS011;3800;48.922;9.444;2023-06-10T08:30:41;4.33;;;3.93;;
7517;SDS011;3800;48.922;9.444;2023-06-10T08:33:09;4.30;;;3.90;;
7517;SDS011;3800;48.922;9.444;2023-06-10T08:35:38;13.03;;;4.30;;
7517;SDS011;3800;48.922;9.444;2023-06-10T08:38:06;4.20;;;3.77;;
7517;SDS011;3800;48.922;9.444;2023-06-10T08:40:36;4.57;;;4.17;;
7517;SDS011;3800;48.922;9.444;2023-06-10T08:43:05;4.40;;;4.00;;
7517;SDS011;3800;48.922;9.444;2023-06-10T08:45:35;4.30;;;4.00;;
7517;SDS011;3800;48.922;9.444;2023-06-10T08:48:03;4.63;;;4.20;;
7517;SDS011;3800;48.922;9.444;2023-06-10T08:50:34;4.53;;;4.23;;
7517;SDS011;3800;48.922;9.444;2023-06-10T08:53:04;4.97;;;4.57;;
7517;SDS011;3800;48.922;9.444;2023-06-10T08:55:35;5.90;;;4.30;;
7517;SDS011;3800;48.922;9.444;2023-06-10T08:58:04;4.93;;;4.43;;
7517;SDS011;3800;48.922;9.444;2023-06-10T09:00:32;4.97;;;4.57;;
7517;SDS011;3800;48.922;9.444;2023-06-10T09:03:00;7.43;;;4.93;;
7517;SDS011;3800;48.922;9.444;2023-06-10T09:05:29;5.13;;;4.63;;
7517;SDS011;3800;48.922;9.444;2023-06-10T09:07:59;5.77;;;4.60;;
7517;SDS011;3800;48.922;9.444;2023-06-10T09:10:28;6.03;;;4.87;;
7517;SDS011;3800;48.922;9.444;2023-06-10T09:12:56;5.33;;;4.80;;
7517;SDS011;3800;48.922;9.444;2023-06-10T09:15:24;4.83;;;4.37;;
7517;SDS011;3800;48.922;9.444;2023-06-10T09:17:53;5.60;;;4.57;;
7517;SDS011;3800;48.922;9.444;2023-06-10T09:20:23;6.03;;;5.00;;
7517;SDS011;3800;48.922;9.444;2023-06-10T09:22:50;4.77;;;4.23;;
7517;SDS011;3800;48.922;9.444;2023-06-10T09:25:18;5.07;;;4.50;;
7517;SDS011;3800;48.922;9.444;2023-06-10T09:27:48;5.03;;;4.63;;
7517;SDS011;3800;48.922;9.444;2023-06-10T09:32:52;5.70;;;5.10;;
7517;SDS011;3800;48.922;9.444;2023-06-10T09:35:20;5.07;;;4.57;;
7517;SDS011;3800;48.922;9.444;2023-06-10T09:37:50;4.83;;;4.40;;
7517;SDS011;3800;48.922;9.444;2023-06-10T09:40:18;4.80;;;4.30;;
7517;SDS011;3800;48.922;9.444;2023-06-10T09:42:47;4.63;;;4.23;;
7517;SDS011;3800;48.922;9.444;2023-06-10T09:45:15;5.17;;;4.17;;
7517;SDS011;3800;48.922;9.444;2023-06-10T09:47:45;4.10;;;3.80;;
7517;SDS011;3800;48.922;9.444;2023-06-10T09:50:11;4.40;;;4.00;;
7517;SDS011;3800;48.922;9.444;2023-06-10T09:52:40;4.07;;;3.77;;
7517;SDS011;3800;48.922;9.444;2023-06-10T09:55:09;5.77;;;3.97;;
7517;SDS011;3800;48.922;9.444;2023-06-10T09:57:37;4.67;;;4.17;;
7517;SDS011;3800;48.922;9.444;2023-06-10T10:00:06;4.60;;;4.20;;
7517;SDS011;3800;48.922;9.444;2023-06-10T10:02:47;4.23;;;3.90;;
7517;SDS011;3800;48.922;9.444;2023-06-10T10:05:18;5.13;;;4.30;;
7517;SDS011;3800;48.922;9.444;2023-06-10T10:07:46;5.13;;;4.73;;
7517;SDS011;3800;48.922;9.444;2023-06-10T10:10:15;4.93;;;4.40;;
7517;SDS011;3800;48.922;9.444;2023-06-10T10:12:43;5.53;;;4.00;;
7517;SDS011;3800;48.922;9.444;2023-06-10T10:15:11;6.57;;;4.40;;
7517;SDS011;3800;48.922;9.444;2023-06-10T10:17:53;6.10;;;4.23;;
7517;SDS011;3800;48.922;9.444;2023-06-10T10:20:11;4.57;;;3.93;;
7517;SDS011;3800;48.922;9.444;2023-06-10T10:22:39;6.57;;;4.20;;
7517;SDS011;3800;48.922;9.444;2023-06-10T10:25:10;7.20;;;4.30;;
7517;SDS011;3800;48.922;9.444;2023-06-10T10:27:48;5.90;;;4.17;;
7517;SDS011;3800;48.922;9.444;2023-06-10T10:30:20;5.90;;;4.43;;
7517;SDS011;3800;48.922;9.444;2023-06-10T10:32:52;4.60;;;4.00;;
7517;SDS011;3800;48.922;9.444;2023-06-10T10:35:25;4.10;;;3.70;;
7517;SDS011;3800;48.922;9.444;2023-06-10T10:37:53;4.27;;;3.87;;
7517;SDS011;3800;48.922;9.444;2023-06-10T10:40:21;4.40;;;4.00;;
7517;SDS011;3800;48.922;9.444;2023-06-10T10:42:50;4.30;;;3.90;;
7517;SDS011;3800;48.922;9.444;2023-06-10T10:45:18;4.10;;;3.70;;
7517;SDS011;3800;48.922;9.444;2023-06-10T10:47:46;4.23;;;3.83;;
7517;SDS011;3800;48.922;9.444;2023-06-10T10:50:16;4.63;;;3.90;;
7517;SDS011;3800;48.922;9.444;2023-06-10T10:55:20;6.43;;;3.90;;
7517;SDS011;3800;48.922;9.444;2023-06-10T10:58:04;5.07;;;3.90;;
7517;SDS011;3800;48.922;9.444;2023-06-10T11:00:33;4.27;;;3.30;;
7517;SDS011;3800;48.922;9.444;2023-06-10T11:03:05;3.73;;;3.43;;
7517;SDS011;3800;48.922;9.444;2023-06-10T11:05:38;3.90;;;3.50;;
7517;SDS011;3800;48.922;9.444;2023-06-10T11:08:07;3.70;;;3.40;;
7517;SDS011;3800;48.922;9.444;2023-06-10T11:10:36;3.77;;;3.37;;
7517;SDS011;3800;48.922;9.444;2023-06-10T11:13:06;3.73;;;3.40;;
7517;SDS011;3800;48.922;9.444;2023-06-10T11:15:47;4.80;;;3.40;;
7517;SDS011;3800;48.922;9.444;2023-06-10T11:18:20;6.30;;;3.20;;
7517;SDS011;3800;48.922;9.444;2023-06-10T11:20:57;3.87;;;3.07;;
7517;SDS011;3800;48.922;9.444;2023-06-10T11:23:35;4.30;;;3.90;;
7517;SDS011;3800;48.922;9.444;2023-06-10T11:26:16;7.70;;;6.90;;
7517;SDS011;3800;48.922;9.444;2023-06-10T11:29:03;4.03;;;3.70;;
7517;SDS011;3800;48.922;9.444;2023-06-10T11:31:33;4.47;;;4.07;;
7517;SDS011;3800;48.922;9.444;2023-06-10T11:34:07;6.17;;;4.20;;
7517;SDS011;3800;48.922;9.444;2023-06-10T11:36:37;6.07;;;4.03;;
7517;SDS011;3800;48.922;9.444;2023-06-10T11:39:04;4.33;;;3.60;;
7517;SDS011;3800;48.922;9.444;2023-06-10T11:41:33;4.13;;;3.80;;
7517;SDS011;3800;48.922;9.444;2023-06-10T11:44:03;4.33;;;3.90;;
7517;SDS011;3800;48.922;9.444;2023-06-10T11:46:29;3.93;;;3.63;;
7517;SDS011;3800;48.922;9.444;2023-06-10T11:48:57;6.97;;;3.80;;
7517;SDS011;3800;48.922;9.444;2023-06-10T11:51:25;3.73;;;3.43;;
7517;SDS011;3800;48.922;9.444;2023-06-10T11:53:54;3.67;;;3.37;;
7517;SDS011;3800;48.922;9.444;2023-06-10T11:56:23;4.33;;;3.80;;
7517;SDS011;3800;48.922;9.444;2023-06-10T11:58:52;3.90;;;3.00;;
7517;SDS011;3800;48.922;9.444;2023-06-10T12:01:22;3.40;;;3.10;;
7517;SDS011;3800;48.922;9.444;2023-06-10T12:03:56;3.70;;;3.40;;
7517;SDS011;3800;48.922;9.444;2023-06-10T12:06:37;4.20;;;3.10;;
7517;SDS011;3800;48.922;9.444;2023-06-10T12:09:13;3.70;;;2.90;;
7517;SDS011;3800;48.922;9.444;2023-06-10T12:11:42;3.70;;;3.40;;
7517;SDS011;3800;48.922;9.444;2023-06-10T12:14:10;3.43;;;3.13;;
7517;SDS011;3800;48.922;9.444;2023-06-10T12:16:38;3.50;;;3.20;;
7517;SDS011;3800;48.922;9.444;2023-06-10T12:19:07;3.57;;;3.20;;
7517;SDS011;3800;48.922;9.444;2023-06-10T12:21:36;4.63;;;3.03;;
7517;SDS011;3800;48.922;9.444;2023-06-10T12:24:05;3.00;;;2.80;;
7517;SDS011;3800;48.922;9.444;2023-06-10T12:26:34;4.93;;;3.10;;
7517;SDS011;3800;48.922;9.444;2023-06-10T12:34:29;3.33;;;3.10;;
7517;SDS011;3800;48.922;9.444;2023-06-10T12:37:10;3.17;;;2.97;;
7517;SDS011;3800;48.922;9.444;2023-06-10T12:39:38;3.17;;;2.97;;
7517;SDS011;3800;48.922;9.444;2023-06-10T12:42:08;3.23;;;2.93;;
7517;SDS011;3800;48.922;9.444;2023-06-10T12:44:39;3.40;;;3.00;;
7517;SDS011;3800;48.922;9.444;2023-06-10T12:47:07;4.57;;;3.20;;
7517;SDS011;3800;48.922;9.444;2023-06-10T12:49:36;4.73;;;3.40;;
7517;SDS011;3800;48.922;9.444;2023-06-10T12:52:05;4.20;;;3.80;;
7517;SDS011;3800;48.922;9.444;2023-06-10T12:54:33;3.97;;;3.30;;
7517;SDS011;3800;48.922;9.444;2023-06-10T12:57:01;3.47;;;3.17;;
7517;SDS011;3800;48.922;9.444;2023-06-10T12:59:29;3.83;;;3.03;;
7517;SDS011;3800;48.922;9.444;2023-06-10T13:01:58;6.00;;;3.33;;
7517;SDS011;3800;48.922;9.444;2023-06-10T13:04:26;3.57;;;3.27;;
7517;SDS011;3800;48.922;9.444;2023-06-10T13:06:54;3.50;;;3.20;;
7517;SDS011;3800;48.922;9.444;2023-06-10T13:09:23;3.40;;;3.10;;
7517;SDS011;3800;48.922;9.444;2023-06-10T13:11:52;3.60;;;3.30;;
7517;SDS011;3800;48.922;9.444;2023-06-10T13:14:21;3.70;;;3.13;;
7517;SDS011;3800;48.922;9.444;2023-06-10T13:16:49;4.10;;;3.70;;
7517;SDS011;3800;48.922;9.444;2023-06-10T13:19:17;3.93;;;3.60;;
7517;SDS011;3800;48.922;9.444;2023-06-10T13:21:46;3.40;;;3.10;;
7517;SDS011;3800;48.922;9.444;2023-06-10T13:24:14;3.70;;;3.40;;
7517;SDS011;3800;48.922;9.444;2023-06-10T13:26:42;3.67;;;3.37;;
7517;SDS011;3800;48.922;9.444;2023-06-10T13:29:10;4.80;;;3.50;;
7517;SDS011;3800;48.922;9.444;2023-06-10T13:31:39;3.63;;;3.30;;
7517;SDS011;3800;48.922;9.444;2023-06-10T13:34:08;4.20;;;3.53;;
7517;SDS011;3800;48.922;9.444;2023-06-10T13:36:36;3.67;;;3.37;;
7517;SDS011;3800;48.922;9.444;2023-06-10T13:39:05;4.67;;;3.40;;
7517;SDS011;3800;48.922;9.444;2023-06-10T13:41:33;3.40;;;3.10;;
7517;SDS011;3800;48.922;9.444;2023-06-10T13:44:01;5.37;;;3.57;;
7517;SDS011;3800;48.922;9.444;2023-06-10T13:46:30;4.00;;;3.70;;
7517;SDS011;3800;48.922;9.444;2023-06-10T13:48:59;5.67;;;3.80;;
7517;SDS011;3800;48.922;9.444;2023-06-10T13:51:27;3.97;;;3.50;;
7517;SDS011;3800;48.922;9.444;2023-06-10T13:53:57;5.53;;;3.87;;
7517;SDS011;3800;48.922;9.444;2023-06-10T13:56:25;3.67;;;3.37;;
7517;SDS011;3800;48.922;9.444;2023-06-10T13:58:53;3.53;;;3.23;;
7517;SDS011;3800;48.922;9.444;2023-06-10T14:01:22;4.17;;;3.77;;
7517;SDS011;3800;48.922;9.444;2023-06-10T14:03:50;3.90;;;3.60;;
7517;SDS011;3800;48.922;9.444;2023-06-10T14:06:18;4.43;;;3.90;;
7517;SDS011;3800;48.922;9.444;2023-06-10T14:08:46;4.18;;;3.67;;
7517;SDS011;3800;48.922;9.444;2023-06-10T14:11:15;3.63;;;3.20;;
7517;SDS011;3800;48.922;9.444;2023-06-10T14:13:44;3.90;;;3.60;;
7517;SDS011;3800;48.922;9.444;2023-06-10T14:16:12;3.53;;;3.23;;
7517;SDS011;3800;48.922;9.444;2023-06-10T14:18:40;3.57;;;3.27;;
7517;SDS011;3800;48.922;9.444;2023-06-10T14:21:08;3.80;;;3.50;;
7517;SDS011;3800;48.922;9.444;2023-06-10T14:23:37;3.57;;;3.17;;
7517;SDS011;3800;48.922;9.444;2023-06-10T14:26:05;3.63;;;3.33;;
7517;SDS011;3800;48.922;9.444;2023-06-10T14:28:33;4.07;;;3.67;;
7517;SDS011;3800;48.922;9.444;2023-06-10T14:31:02;3.53;;;3.22;;
7517;SDS011;3800;48.922;9.444;2023-06-10T14:33:30;3.50;;;3.20;;
7517;SDS011;3800;48.922;9.444;2023-06-10T14:35:59;6.90;;;3.47;;
7517;SDS011;3800;48.922;9.444;2023-06-10T14:38:27;5.15;;;4.12;;
7517;SDS011;3800;48.922;9.444;2023-06-10T14:40:55;4.15;;;3.75;;
7517;SDS011;3800;48.922;9.444;2023-06-10T14:43:23;3.80;;;3.40;;
7517;SDS011;3800;48.922;9.444;2023-06-10T14:45:52;3.90;;;3.60;;
7517;SDS011;3800;48.922;9.444;2023-06-10T14:48:20;3.53;;;3.23;;
7517;SDS011;3800;48.922;9.444;2023-06-10T14:50:49;3.87;;;3.47;;
7517;SDS011;3800;48.922;9.444;2023-06-10T14:53:18;4.13;;;3.37;;
7517;SDS011;3800;48.922;9.444;2023-06-10T14:55:47;3.47;;;3.22;;
7517;SDS011;3800;48.922;9.444;2023-06-10T14:58:15;3.63;;;3.33;;
7517;SDS011;3800;48.922;9.444;2023-06-10T15:00:44;3.73;;;3.43;;
7517;SDS011;3800;48.922;9.444;2023-06-10T15:03:13;4.07;;;3.60;;
7517;SDS011;3800;48.922;9.444;2023-06-10T15:05:41;3.90;;;3.50;;
7517;SDS011;3800;48.922;9.444;2023-06-10T15:08:10;4.17;;;3.53;;
7517;SDS011;3800;48.922;9.444;2023-06-10T15:10:39;4.83;;;3.50;;
7517;SDS011;3800;48.922;9.444;2023-06-10T15:13:07;4.63;;;3.80;;
7517;SDS011;3800;48.922;9.444;2023-06-10T15:15:36;3.63;;;3.33;;
7517;SDS011;3800;48.922;9.444;2023-06-10T15:18:04;3.57;;;3.30;;
7517;SDS011;3800;48.922;9.444;2023-06-10T15:20:32;3.83;;;3.47;;
7517;SDS011;3800;48.922;9.444;2023-06-10T15:23:01;3.40;;;3.10;;
7517;SDS011;3800;48.922;9.444;2023-06-10T15:25:29;3.20;;;3.00;;
7517;SDS011;3800;48.922;9.444;2023-06-10T15:27:57;3.43;;;2.87;;
7517;SDS011;3800;48.922;9.444;2023-06-10T15:30:25;4.17;;;3.00;;
7517;SDS011;3800;48.922;9.444;2023-06-10T15:32:54;4.07;;;3.47;;
7517;SDS011;3800;48.922;9.444;2023-06-10T15:35:22;3.40;;;2.97;;
7517;SDS011;3800;48.922;9.444;2023-06-10T15:37:51;3.63;;;3.33;;
7517;SDS011;3800;48.922;9.444;2023-06-10T15:40:20;3.57;;;3.30;;